Weather observations for the past three days for
Roy Hurd Memorial Airport
Imperial (Metric)
Date Time (cdt) Wind (mph) Vis. (mi.) Weather Sky Cond. Temperature (ºF) Relative Humidity Wind Chill (°F) Heat Index (°F) Pressure Precipitation (in)
Air Dwpt 6 hour altimeter (in) sea level (mb) 1 hr 3 hr 6 hr
Max. Min.
07 12:15 Calm 10.00 Fair CLR 68 46.4 46% 30.1 0.0
07 11:55 Vrbl 7 10.00 Fair CLR 66.2 46.4 49% 30.11 0.0
07 11:35 E 9 7.00 Fair CLR 66.2 46.4 49% 30.11 0.0
07 11:15 NE 6 G 13 10.00 Partly Cloudy SCT037 64.4 46.4 52% 30.12 0.0
07 10:55 E 9 10.00 Mostly Cloudy BKN037 64.4 46.4 52% 30.13 0.0
07 10:35 E 12 10.00 Mostly Cloudy BKN037 62.6 46.4 56% 30.13 0.0
07 10:15 E 10 10.00 Overcast OVC036 62.6 44.6 52% 30.13 0.0
07 09:55 E 12 10.00 Overcast OVC035 60.8 46.4 59% 30.14 0.0
07 09:35 E 14 10.00 Mostly Cloudy BKN036 60.8 46.4 59% 30.14 0.0
07 09:15 E 12 G 20 10.00 A Few Clouds FEW038 59 46.4 63% 30.14 0.0
07 08:55 E 15 10.00 Fair CLR 59 46.4 63% 30.14 0.0
07 08:35 E 17 10.00 Fair CLR 57.2 46.4 67% 30.13 0.0
07 08:15 E 16 G 25 10.00 Fair CLR 57.2 46.4 67% 30.13 0.0
07 07:55 E 14 G 21 10.00 Fair CLR 55.4 46.4 72% 30.12 0.0
07 07:35 E 14 G 22 10.00 Fair CLR 55.4 46.4 72% 30.11 0.0
07 07:10 E 18 G 26 10.00 Fair CLR 55.4 46.4 72% 30.09 0.0
07 06:55 E 16 G 23 10.00 Fair CLR 55.4 46.4 72% 30.09 0.0
07 06:35 E 15 G 22 10.00 Fair CLR 57.2 46.4 67% 30.08 0.0
07 06:15 E 16 G 23 10.00 Fair CLR 57.2 46.4 67% 30.07 0.0
07 05:55 E 16 G 25 10.00 Fair CLR 57.2 48.2 72% 30.08 0.0
07 05:35 E 17 G 25 10.00 Fair CLR 59 50 72% 30.06 0.0
07 05:15 E 17 G 28 10.00 Fair CLR 59 51.8 77% 30.05 0.0
07 04:55 E 18 G 24 10.00 Fair CLR 59 50 72% 30.05 0.0
07 04:35 E 18 10.00 Fair CLR 60.8 51.8 72% 30.04 0.0
07 04:15 E 16 G 24 10.00 Fair CLR 60.8 51.8 72% 30.03 0.0
07 03:55 E 16 G 24 10.00 Fair CLR 62.6 55.4 77% 30.02 0.0
07 03:35 E 15 G 22 10.00 Fair CLR 62.6 53.6 73% 30.02 0.0
07 03:15 E 14 G 21 10.00 Fair CLR 62.6 53.6 73% 30.02 0.0
07 02:55 E 12 5.00 Fair with Haze CLR 62.6 53.6 73% 30.01 0.0
07 02:35 E 10 2.50 Fair with Haze CLR 64.4 53.6 68% 30.01 0.0
07 02:15 E 8 2.50 Fair with Haze CLR 64.4 53.6 68% 30 0.0
07 01:55 SE 13 2.50 Fair with Haze CLR 66.2 53.6 64% 29.99 0.0
07 01:30 SE 12 2.00 Fair with Haze CLR 66.2 53.6 64% 29.99 0.0
07 01:10 E 9 3.00 Fair with Haze CLR 68 51.8 56% 30 0.0
07 00:55 E 12 3.00 Fair with Haze CLR 68 51.8 56% 29.99 0.0
07 00:35 SE 8 4.00 Fair with Haze CLR 68 50 53% 29.99 0.0
07 00:15 SE 10 7.00 Fair CLR 69.8 48.2 46% 29.98 0.0
06 23:55 SE 8 10.00 Fair CLR 69.8 44.6 40% 29.97 0.0
06 23:35 SE 8 9.00 Fair CLR 69.8 44.6 40% 29.97 0.0
06 23:15 SE 8 10.00 Fair CLR 71.6 42.8 36% 29.97 0.0
06 22:55 SE 7 10.00 Fair CLR 73.4 41 31% 29.96 0.0
06 22:35 SE 6 10.00 Fair CLR 75.2 41 29% 77 29.95 0.0
06 22:15 Calm 10.00 Fair CLR 75.2 41 29% 77 29.93 0.0
06 21:50 SE 7 10.00 Fair CLR 75.2 41 29% 77 29.92 0.0
06 21:35 SE 6 10.00 Fair CLR 77 41 28% 78 29.91 0.0
06 21:15 SE 5 10.00 Fair CLR 77 41 28% 78 29.9 0.0
06 20:50 SE 7 10.00 Fair CLR 78.8 41 26% 78 29.89 0.0
06 20:35 SE 8 10.00 Fair CLR 80.6 39.2 23% 79 29.88 0.0
06 20:15 SE 9 10.00 Fair CLR 82.4 39.2 21% 80 29.87 0.0
06 19:55 SE 5 10.00 Fair CLR 82.4 39.2 21% 80 29.87 0.0
06 19:30 S 10 10.00 Fair CLR 82.4 39.2 21% 80 29.86 0.0
06 19:15 S 7 G 13 10.00 Fair CLR 82.4 39.2 21% 80 29.86 0.0
06 18:55 SE 9 G 15 10.00 Fair CLR 82.4 39.2 21% 80 29.86 0.0
06 18:35 Vrbl 6 10.00 Fair CLR 82.4 39.2 21% 80 29.86 0.0
06 18:15 S 9 10.00 Fair CLR 82.4 39.2 21% 80 29.85 0.0
06 17:55 Vrbl 3 G 13 10.00 Fair CLR 82.4 41 23% 80 29.85 0.0
06 17:35 Calm 10.00 Fair CLR 82.4 41 23% 80 29.86 0.0
06 17:15 E 9 10.00 Fair CLR 82.4 41 23% 80 29.87 0.0
06 16:55 E 3 9.00 Fair CLR 80.6 42.8 26% 79 29.87 0.0
06 16:35 E 8 G 15 10.00 Fair CLR 80.6 42.8 26% 79 29.87 0.0
06 16:15 Vrbl 3 G 13 10.00 Fair CLR 80.6 42.8 26% 79 29.88 0.0
06 15:55 SE 7 G 13 10.00 Fair CLR 80.6 42.8 26% 79 29.89 0.0
06 15:35 S 9 10.00 Fair CLR 78.8 42.8 28% 78 29.9 0.0
06 15:15 E 5 10.00 Fair CLR 77 42.8 30% 78 29.92 0.0
06 14:55 E 10 10.00 Fair CLR 78.8 42.8 28% 78 29.92 0.0
06 14:35 E 8 10.00 Fair CLR 77 42.8 30% 78 29.93 0.0
06 14:15 SE 10 10.00 Fair CLR 75.2 42.8 31% 77 29.93 0.0
06 13:55 E 10 10.00 Fair CLR 75.2 44.6 34% 77 29.94 0.0
06 13:35 E 8 G 16 10.00 Fair CLR 73.4 44.6 36% 29.95 0.0
06 13:10 E 9 10.00 Fair CLR 71.6 44.6 38% 29.96 0.0
06 12:55 E 12 G 17 10.00 Fair CLR 71.6 44.6 38% 29.96 0.0
06 12:35 E 13 10.00 Fair CLR 69.8 44.6 40% 29.97 0.0
06 12:15 E 14 G 20 10.00 Fair CLR 69.8 46.4 43% 29.97 0.0
06 11:55 NE 12 G 18 10.00 Fair CLR 68 46.4 46% 29.97 0.0
06 11:35 E 13 10.00 Fair CLR 68 46.4 46% 29.97 0.0
06 11:15 NE 14 10.00 Fair CLR 66.2 46.4 49% 29.96 0.0
06 10:55 NE 16 10.00 Fair CLR 66.2 48.2 52% 29.96 0.0
06 10:35 E 13 10.00 Fair CLR 66.2 48.2 52% 29.95 0.0
06 10:15 NE 13 G 20 10.00 Fair CLR 68 48.2 49% 29.94 0.0
06 09:55 NE 10 G 16 10.00 Fair CLR 69.8 46.4 43% 29.93 0.0
06 09:35 N 9 10.00 Fair CLR 73.4 35.6 25% 29.92 0.0
06 09:15 NW 8 10.00 Fair CLR 71.6 35.6 27% 29.92 0.0
06 08:55 N 9 10.00 Fair CLR 69.8 35.6 29% 29.91 0.0
06 08:35 N 6 10.00 Fair CLR 68 39.2 35% 29.9 0.0
06 08:15 N 7 10.00 Fair CLR 68 37.4 33% 29.89 0.0
06 07:55 NW 7 10.00 Fair CLR 68 35.6 30% 29.88 0.0
06 07:30 N 8 10.00 Fair CLR 68 35.6 30% 29.87 0.0
06 07:10 NW 8 10.00 Fair CLR 69.8 33.8 27% 29.86 0.0
06 06:55 NW 9 10.00 A Few Clouds FEW002 71.6 33.8 25% 29.86 0.0
06 06:35 NW 9 G 16 4.00 Partly Cloudy with Haze SCT002 SCT085 71.6 33.8 25% 29.85 0.0
06 06:15 W 10 10.00 Partly Cloudy SCT085 73.4 33.8 23% 29.85 0.0
06 05:55 W 12 10.00 Overcast OVC085 73.4 33.8 23% 29.85 0.0
06 05:35 W 12 10.00 Overcast OVC085 73.4 35.6 25% 29.84 0.0
06 05:15 W 12 10.00 Overcast OVC085 75.2 37.4 25% 77 29.84 0.0
06 04:55 W 9 10.00 Overcast OVC090 73.4 39.2 29% 29.84 0.0
06 04:35 W 7 10.00 Overcast OVC090 69.8 44.6 40% 29.84 0.0
06 04:15 W 7 10.00 Overcast OVC090 68 48.2 49% 29.84 0.0
06 03:55 Calm 10.00 Overcast OVC095 68 48.2 49% 29.83 0.0
06 03:35 Calm 10.00 Mostly Cloudy FEW075 BKN090 68 46.4 46% 29.83 0.0
06 03:15 Calm 10.00 A Few Clouds FEW065 FEW080 69.8 46.4 43% 29.83 0.0
06 02:55 S 5 10.00 Mostly Cloudy FEW050 SCT070 BKN090 69.8 44.6 40% 29.83 0.0
06 02:30 SE 6 10.00 Overcast FEW060 OVC085 69.8 46.4 43% 29.83 0.0
06 02:15 Calm 10.00 Overcast FEW048 OVC085 69.8 46.4 43% 29.83 0.0
06 01:55 Calm 10.00 Overcast FEW048 OVC085 69.8 44.6 40% 29.84 0.0
06 01:35 Calm 10.00 Overcast OVC080 68 46.4 46% 29.83 0.0
06 01:15 Calm 10.00 Overcast OVC080 68 46.4 46% 29.83 0.0
06 00:55 Calm 10.00 Overcast OVC075 69.8 44.6 40% 29.83 0.0
06 00:35 Calm 10.00 Overcast OVC070 71.6 42.8 36% 29.83 0.0
06 00:15 N 5 10.00 Overcast OVC070 71.6 44.6 38% 29.83 0.0
05 23:50 SE 5 10.00 Partly Cloudy SCT065 71.6 42.8 36% 29.82 0.0
05 23:35 S 3 10.00 Partly Cloudy SCT070 71.6 42.8 36% 29.81 0.0
05 23:15 SE 7 10.00 Mostly Cloudy BKN070 73.4 42.8 33% 29.8 0.0
05 22:55 SE 8 10.00 Fair CLR 73.4 42.8 33% 29.8 0.0
05 22:35 S 5 10.00 Fair CLR 75.2 41 29% 77 29.79 0.0
05 22:15 S 3 10.00 Fair CLR 75.2 41 29% 77 29.77 0.0
05 21:55 N 5 10.00 Fair CLR 75.2 41 29% 77 29.76 0.0
05 21:35 N 7 10.00 Fair CLR 77 41 28% 78 29.75 0.0
05 21:15 NW 6 10.00 Fair CLR 78.8 41 26% 78 29.76 0.0
05 20:55 Calm 10.00 Fair CLR 80.6 39.2 23% 79 29.76 0.0
05 20:35 Calm 10.00 Fair CLR 80.6 39.2 23% 79 29.76 0.0
05 20:15 W 6 10.00 Fair CLR 82.4 39.2 21% 80 29.76 0.0
05 19:55 NW 9 10.00 Fair CLR 82.4 37.4 20% 80 29.75 0.0
05 19:35 NW 10 G 17 10.00 Fair CLR 82.4 37.4 20% 80 29.76 0.0
05 19:15 NW 10 10.00 Fair CLR 82.4 37.4 20% 80 29.77 0.0
05 18:55 NW 13 10.00 Fair CLR 82.4 37.4 20% 80 29.77 0.0
05 18:35 NW 17 10.00 Fair CLR 82.4 37.4 20% 80 29.78 0.0
05 18:10 NW 20 G 25 10.00 Fair CLR 82.4 37.4 20% 80 29.78 0.0
05 17:55 NW 17 G 25 10.00 Fair CLR 82.4 37.4 20% 80 29.78 0.0
05 17:35 W 15 G 23 10.00 Fair CLR 84.2 37.4 19% 81 29.78 0.0
05 17:15 W 15 G 25 10.00 Fair CLR 84.2 37.4 19% 81 29.79 0.0
05 16:55 W 22 10.00 Fair and Breezy CLR 84.2 37.4 19% 81 29.79 0.0
05 16:35 W 21 G 26 10.00 Fair and Breezy CLR 84.2 37.4 19% 81 29.8 0.0
05 16:15 W 21 G 31 10.00 Fair and Breezy CLR 86 37.4 18% 83 29.8 0.0
05 15:55 W 21 G 26 10.00 Fair and Breezy CLR 86 35.6 17% 83 29.8 0.0
05 15:35 W 18 G 29 10.00 Fair CLR 87.8 37.4 17% 84 29.81 0.0
05 15:10 W 17 G 30 10.00 Fair CLR 86 35.6 17% 83 29.81 0.0
05 14:55 W 22 10.00 Fair and Breezy CLR 86 37.4 18% 83 29.81 0.0
05 14:35 W 18 G 24 10.00 Fair CLR 84.2 37.4 19% 81 29.82 0.0
05 14:15 W 17 G 24 10.00 Fair CLR 84.2 39.2 20% 81 29.82 0.0
05 13:55 W 20 G 25 10.00 Fair CLR 84.2 37.4 19% 81 29.82 0.0
05 13:35 NW 17 G 24 10.00 Fair CLR 86 37.4 18% 83 29.83 0.0
05 13:15 W 10 10.00 Fair CLR 84.2 37.4 19% 81 29.83 0.0
05 12:55 W 8 10.00 Fair CLR 84.2 37.4 19% 81 29.84 0.0
05 12:30 NW 13 G 20 10.00 Fair CLR 84.2 37.4 19% 81 29.84 0.0
05 12:15 NW 13 10.00 Fair CLR 84.2 35.6 18% 81 29.84 0.0
05 11:55 W 9 G 16 10.00 Fair CLR 82.4 35.6 19% 80 29.84 0.0
05 11:35 W 13 10.00 Fair CLR 82.4 35.6 19% 80 29.84 0.0
05 11:15 W 15 10.00 Fair CLR 82.4 37.4 20% 80 29.83 0.0
05 10:55 W 12 G 17 10.00 Fair CLR 80.6 37.4 21% 79 29.83 0.0
05 10:35 W 14 10.00 Fair CLR 78.8 39.2 24% 78 29.83 0.0
05 10:15 W 7 10.00 Fair CLR 77 41 28% 78 29.83 0.0
05 09:50 Calm 10.00 Fair CLR 73.4 44.6 36% 29.83 0.0
05 09:35 NW 6 10.00 Fair CLR 71.6 44.6 38% 29.82 0.0
05 09:15 NW 5 10.00 Fair CLR 69.8 48.2 46% 29.82 0.0
05 08:55 Calm 9.00 Fair CLR 69.8 53.6 57% 29.81 0.0
05 08:35 Calm 10.00 Fair CLR 68 57.2 69% 29.8 0.0
05 08:15 NE 5 10.00 Fair CLR 66.2 59 78% 29.8 0.0
05 07:55 SE 5 10.00 Fair CLR 64.4 60.8 88% 29.79 0.0
05 07:35 SE 5 10.00 Fair CLR 64.4 59 83% 29.78 0.0
05 07:15 Calm 10.00 Fair CLR 64.4 59 83% 29.77 0.0
05 06:55 Calm 10.00 Fair CLR 64.4 57.2 78% 29.77 0.0
05 06:35 Calm 10.00 Fair CLR 66.2 53.6 64% 29.76 0.0
05 06:15 Calm 10.00 Fair CLR 66.2 51.8 60% 29.76 0.0
05 05:55 NE 5 10.00 Fair CLR 68 53.6 60% 29.76 0.0
05 05:35 N 3 10.00 Fair CLR 69.8 48.2 46% 29.76 0.0
05 05:15 W 10 G 17 10.00 Fair CLR 73.4 41 31% 29.75 0.0
05 04:55 Vrbl 6 10.00 Fair CLR 68 55.4 64% 29.75 0.0
05 04:35 S 6 10.00 Fair CLR 69.8 53.6 57% 29.75 0.0
05 04:15 S 6 10.00 Fair CLR 68 59 73% 29.75 0.0
05 03:55 S 7 10.00 Fair CLR 68 59 73% 29.75 0.0
05 03:30 S 7 10.00 Fair CLR 69.8 59 69% 29.76 0.0
05 03:15 S 7 10.00 Fair CLR 69.8 57.2 64% 29.75 0.0
05 02:55 SE 7 10.00 Fair CLR 69.8 59 69% 29.76 0.0
05 02:35 SE 7 10.00 A Few Clouds FEW070 71.6 57.2 61% 29.76 0.0
05 02:15 S 7 10.00 Mostly Cloudy BKN070 71.6 57.2 61% 29.76 0.0
05 01:55 S 7 10.00 Overcast BKN075 OVC085 73.4 55.4 53% 29.77 0.0
05 01:35 S 7 10.00 Overcast OVC080 73.4 51.8 47% 29.78 0.0
05 01:15 S 7 10.00 Partly Cloudy SCT075 73.4 46.4 38% 29.78 0.0
05 00:55 Calm 10.00 A Few Clouds FEW070 75.2 42.8 31% 77 29.77 0.0
05 00:35 SW 6 10.00 A Few Clouds FEW070 77 41 28% 78 29.78 0.0
05 00:15 S 6 10.00 A Few Clouds FEW070 75.2 41 29% 77 29.77 0.0
04 23:55 SW 6 10.00 Fair CLR 75.2 41 29% 77 29.78 0.0
04 23:35 SW 5 10.00 Fair CLR 75.2 41 29% 77 29.79 0.0
04 23:15 S 3 10.00 Fair CLR 78.8 39.2 24% 78 29.78 0.0
04 22:55 SW 6 10.00 Fair CLR 78.8 39.2 24% 78 29.77 0.0
04 22:35 Calm 10.00 Fair CLR 78.8 37.4 23% 78 29.76 0.0
04 22:15 Calm 10.00 Fair CLR 80.6 35.6 20% 79 29.77 0.0
04 21:55 SW 6 10.00 Fair CLR 80.6 35.6 20% 79 29.77 0.0
04 21:30 SW 6 10.00 Fair CLR 80.6 33.8 18% 79 29.76 0.0
04 21:15 W 7 10.00 Fair CLR 82.4 33.8 17% 80 29.76 0.0
04 20:55 W 7 10.00 Fair CLR 84.2 32 15% 81 29.75 0.0
04 20:35 W 9 G 15 10.00 Fair CLR 86 30.2 13% 83 29.74 0.0
04 20:15 W 13 10.00 Fair CLR 87.8 30.2 13% 84 29.74 0.0
04 19:55 W 12 G 20 10.00 Fair CLR 87.8 30.2 13% 84 29.74 0.0
04 19:35 W 15 10.00 Fair CLR 89.6 28.4 11% 86 29.74 0.0
04 19:15 W 16 G 25 10.00 Fair CLR 89.6 28.4 11% 86 29.75 0.0
04 18:55 W 14 G 24 10.00 Fair CLR 91.4 28.4 10% 87 29.75 0.0
04 18:35 W 18 G 25 10.00 Fair CLR 91.4 28.4 10% 87 29.75 0.0
04 18:15 SW 15 G 24 10.00 Fair CLR 91.4 28.4 10% 87 29.76 0.0
04 17:55 SW 18 G 26 10.00 Fair CLR 91.4 28.4 10% 87 29.76 0.0
04 17:35 SW 16 G 24 10.00 Fair CLR 91.4 28.4 10% 87 29.76 0.0
04 17:15 W 13 G 26 10.00 Fair CLR 91.4 33.8 13% 87 29.76 0.0
04 16:55 W 24 G 33 9.00 Fair and Breezy CLR 93.2 33.8 12% 89 29.77 0.0
04 16:35 SW 17 G 26 10.00 Fair CLR 91.4 39.2 16% 87 29.78 0.0
04 16:15 W 20 10.00 Fair CLR 91.4 37.4 15% 87 29.79 0.0
04 15:55 W 15 G 22 10.00 Fair CLR 89.6 37.4 16% 86 29.8 0.0
04 15:35 W 14 G 28 10.00 Fair CLR 89.6 37.4 16% 86 29.81 0.0
04 15:15 W 16 G 24 10.00 Fair CLR 89.6 37.4 16% 86 29.83 0.0
04 14:55 W 15 10.00 Fair CLR 89.6 39.2 17% 86 29.84 0.0
04 14:35 W 13 G 21 10.00 Fair CLR 87.8 41 19% 84 29.85 0.0
04 14:15 NW 12 10.00 Fair CLR 86 41 20% 83 29.85 0.0
04 13:55 W 10 G 16 10.00 Fair CLR 84.2 44.6 25% 82 29.86 0.0
04 13:35 W 10 G 20 10.00 Fair CLR 84.2 48.2 29% 82 29.87 0.0
04 13:10 W 10 10.00 Fair CLR 82.4 50 32% 81 29.88 0.0
04 12:55 W 9 10.00 Fair CLR 82.4 48.2 30% 81 29.88 0.0
04 12:35 SW 8 10.00 Fair CLR 80.6 50 34% 80 29.89 0.0
Date Time (cdt) Wind (mph) Vis. (mi.) Weather Sky Cond. Air Dwpt Max. Min. Relative Humidity Wind Chill (°F) Heat Index (°F) altimeter (in) sea level (mb) 1 hr 3 hr 6 hr
6 hour
Temperature (ºF) Pressure Precipitation (in)